Decoded Metar for LFYR (ROMORANTIN/PRUNI in FRANCE) (IATA:N/A) | Meteo·Mobile Aviation Weather
aviador You're here:

LFYR Decoded Metar

ROMORANTIN/PRUNI in FRANCE
Report Time2018-11-12 22:30:00
UTC Time2018-11-12 23:00:16
Flight Rules lifr LIFR
WindVRB at 03 kt
Visibility9999 m
Phenomena:Light Rain
Clouds:Broken 004 Hf
Overcast 068 Hf
Expected CloudBase > 400 ft AGL from Temp-Dew spread
Ceiling400 ft
Temp10°C (ISA -4)
Dew Point09°C (94% RH)
AAT8.7°C
QNH1021 hPa
Density Alt-364 ft
Elevation282 ft
Report Wrong Elevation
Raw Report
METAR LFYR 122230Z AUTO VRB03KT 9999 -RA BKN004 OVC068 10/09 Q1021=

Extra information for LFYR:More info

Metar Taf Metar & Taf Last 4 Metars F.Rules Stats Wind Profile Meteogram Temp Stats Airport Information Weather charts Add Link Nearby VenuesMetar ALERT Operation Metar Decoded Social comments